createdAt,value
2019-03-20T00:03:07.853Z,1.78
2019-03-20T00:08:09.611Z,1.62
2019-03-20T00:13:11.298Z,1.63
2019-03-20T00:18:13.057Z,1.74
2019-03-20T00:23:14.612Z,1.80
2019-03-20T00:28:16.302Z,1.82
2019-03-20T00:33:18.291Z,1.84
2019-03-20T00:38:20.150Z,1.83
2019-03-20T00:43:21.698Z,1.78
2019-03-20T00:48:23.284Z,1.68
2019-03-20T00:53:24.841Z,1.66
2019-03-20T00:58:26.852Z,1.61
2019-03-20T01:03:28.648Z,1.56
2019-03-20T01:08:30.248Z,1.46
2019-03-20T01:13:32.311Z,1.40
2019-03-20T01:18:33.867Z,1.41
2019-03-20T01:23:35.423Z,1.42
2019-03-20T01:28:36.987Z,1.45
2019-03-20T01:33:38.576Z,1.45
2019-03-20T01:38:40.119Z,1.45
2019-03-20T01:43:41.670Z,1.37
2019-03-20T01:48:43.352Z,1.38
2019-03-20T01:53:44.907Z,1.33
2019-03-20T01:58:46.636Z,1.21
2019-03-20T02:03:48.224Z,1.01
2019-03-20T02:08:49.840Z,0.88
2019-03-20T02:13:51.604Z,0.80
2019-03-20T02:18:54.256Z,0.82
2019-03-20T02:23:55.810Z,0.89
2019-03-20T02:28:57.358Z,0.90
2019-03-20T02:33:58.952Z,0.93
2019-03-20T02:39:00.495Z,0.86
2019-03-20T02:44:02.921Z,0.82
2019-03-20T02:49:04.540Z,0.72
2019-03-20T02:54:06.100Z,0.74
2019-03-20T02:59:08.833Z,0.81
2019-03-20T03:04:10.521Z,0.82
2019-03-20T03:09:12.289Z,0.76
2019-03-20T03:14:13.850Z,0.59
2019-03-20T03:19:15.405Z,0.44
2019-03-20T03:24:16.961Z,0.33
2019-03-20T03:29:18.633Z,0.27
2019-03-20T03:34:20.301Z,0.31
2019-03-20T03:39:21.909Z,0.33
2019-03-20T03:44:23.488Z,0.35
2019-03-20T03:49:25.094Z,0.36
2019-03-20T03:54:26.737Z,0.36
2019-03-20T03:59:28.380Z,0.36
2019-03-20T04:04:30.444Z,0.33
2019-03-20T04:09:32.050Z,0.27
2019-03-20T04:14:33.596Z,0.22
2019-03-20T04:19:35.148Z,0.21
2019-03-20T04:24:36.707Z,0.19
2019-03-20T04:29:38.273Z,0.32
2019-03-20T04:34:39.986Z,0.40
2019-03-20T04:39:42.648Z,0.38
2019-03-20T04:44:44.193Z,0.26
2019-03-20T04:49:45.820Z,0.19
2019-03-20T04:54:47.369Z,0.03
2019-03-20T04:59:49.296Z,-0.03
2019-03-20T05:04:50.964Z,0.01
2019-03-20T05:09:52.561Z,0.09
2019-03-20T05:14:54.118Z,0.12
2019-03-20T05:19:55.679Z,0.15
2019-03-20T05:24:57.241Z,0.23
2019-03-20T05:29:58.801Z,0.32
2019-03-20T05:35:00.407Z,0.40
2019-03-20T05:40:06.374Z,0.56
2019-03-20T05:45:13.912Z,0.86
2019-03-20T05:50:17.182Z,1.05
2019-03-20T05:55:18.752Z,1.29
2019-03-20T06:00:21.783Z,1.52
2019-03-20T06:05:23.715Z,1.75
2019-03-20T06:10:25.267Z,1.89
2019-03-20T06:15:29.579Z,2.04
2019-03-20T06:20:33.875Z,2.27
2019-03-20T06:25:35.709Z,2.43
2019-03-20T06:30:37.372Z,2.60
2019-03-20T06:35:38.959Z,2.69
2019-03-20T06:40:40.713Z,2.85
2019-03-20T06:45:42.310Z,3.01
2019-03-20T06:50:43.940Z,3.21
2019-03-20T06:55:45.500Z,3.33
2019-03-20T07:01:04.368Z,3.45
2019-03-20T07:06:20.753Z,3.55
2019-03-20T07:11:21.993Z,3.75
2019-03-20T07:16:23.964Z,3.95
2019-03-20T07:21:25.553Z,4.08
2019-03-20T07:26:28.701Z,4.25
2019-03-20T07:31:30.474Z,4.32
2019-03-20T07:36:32.023Z,4.59
2019-03-20T07:41:33.580Z,4.88
2019-03-20T07:46:35.138Z,5.21
2019-03-20T07:51:36.755Z,5.49
2019-03-20T07:56:38.323Z,5.73
2019-03-20T08:01:39.940Z,6.04
2019-03-20T08:06:41.488Z,6.29
2019-03-20T08:11:43.148Z,6.53
2019-03-20T08:16:44.728Z,6.77
2019-03-20T08:21:46.286Z,7.13
2019-03-20T08:26:47.841Z,7.56
2019-03-20T08:31:49.516Z,7.71
2019-03-20T08:36:51.296Z,8.02
2019-03-20T08:41:52.851Z,8.14
2019-03-20T08:46:54.409Z,8.32
2019-03-20T08:51:56.007Z,8.82
2019-03-20T08:56:57.605Z,8.82
2019-03-20T09:01:59.236Z,9.35
2019-03-20T09:07:01.024Z,9.54
2019-03-20T09:12:03.185Z,9.64
2019-03-20T09:17:04.856Z,9.98
2019-03-20T09:22:06.439Z,10.24
2019-03-20T09:27:08.128Z,10.04
2019-03-20T09:32:09.777Z,10.31
2019-03-20T09:37:11.336Z,10.38
2019-03-20T09:42:13.087Z,10.60
2019-03-20T09:47:14.675Z,10.69
2019-03-20T09:52:16.373Z,9.89
2019-03-20T09:57:17.983Z,10.40
2019-03-20T10:02:19.673Z,10.71
2019-03-20T10:07:21.231Z,10.17
2019-03-20T10:12:22.793Z,9.51
2019-03-20T10:17:24.352Z,9.22
2019-03-20T10:22:25.905Z,9.68
2019-03-20T10:27:27.512Z,10.69
2019-03-20T10:32:29.095Z,11.44
2019-03-20T10:37:30.694Z,11.43
2019-03-20T10:42:32.252Z,11.59
2019-03-20T10:47:33.906Z,10.57
2019-03-20T10:52:35.511Z,10.02
2019-03-20T10:57:37.308Z,10.95
2019-03-20T11:02:39.253Z,11.69
2019-03-20T11:07:41.250Z,10.74
2019-03-20T11:12:42.795Z,10.07
2019-03-20T11:17:45.056Z,9.59
2019-03-20T11:22:47.327Z,9.23
2019-03-20T11:27:49.024Z,8.96
2019-03-20T11:32:50.587Z,9.04
2019-03-20T11:37:52.643Z,10.62
2019-03-20T11:42:54.691Z,11.46
2019-03-20T11:47:56.605Z,11.76
2019-03-20T11:52:58.388Z,11.89
2019-03-20T11:58:00.117Z,11.21
2019-03-20T12:03:01.937Z,10.46
2019-03-20T12:08:03.597Z,9.92
2019-03-20T12:13:05.370Z,9.49
2019-03-20T12:18:07.266Z,9.21
2019-03-20T12:23:08.815Z,9.00
2019-03-20T12:28:10.524Z,8.86
2019-03-20T12:33:12.125Z,9.75
2019-03-20T12:38:15.326Z,10.56
2019-03-20T12:43:17.394Z,11.12
2019-03-20T12:48:18.943Z,11.70
2019-03-20T12:53:31.399Z,12.05
2019-03-20T12:58:33.160Z,12.34
2019-03-20T13:03:34.780Z,12.58
2019-03-20T13:08:36.532Z,12.62
2019-03-20T13:13:38.100Z,11.45
2019-03-20T13:18:39.784Z,10.96
2019-03-20T13:23:42.486Z,10.90
2019-03-20T13:28:44.084Z,10.56
2019-03-20T13:33:45.788Z,10.14
2019-03-20T13:38:47.458Z,9.81
2019-03-20T13:43:50.123Z,10.24
2019-03-20T13:48:51.695Z,11.32
2019-03-20T13:53:53.504Z,11.82
2019-03-20T13:58:55.060Z,12.27
2019-03-20T14:03:57.000Z,11.86
2019-03-20T14:08:58.622Z,12.18
2019-03-20T14:14:00.177Z,12.03
2019-03-20T14:19:01.734Z,11.94
2019-03-20T14:24:03.597Z,12.18
2019-03-20T14:29:05.182Z,12.11
2019-03-20T14:34:06.848Z,11.95
2019-03-20T14:39:08.438Z,12.01
2019-03-20T14:44:10.108Z,11.99
2019-03-20T14:49:11.648Z,11.71
2019-03-20T14:54:13.248Z,11.34
2019-03-20T14:59:14.850Z,11.52
2019-03-20T15:04:20.550Z,11.76
2019-03-20T15:09:23.264Z,11.75
2019-03-20T15:14:26.080Z,11.50
2019-03-20T15:19:27.633Z,11.11
2019-03-20T15:24:29.198Z,10.58
2019-03-20T15:29:30.799Z,10.23
2019-03-20T15:34:32.354Z,10.23
2019-03-20T15:39:34.804Z,10.07
2019-03-20T15:44:36.400Z,10.04
2019-03-20T15:49:38.005Z,10.00
2019-03-20T15:54:41.644Z,9.96
2019-03-20T15:59:43.243Z,9.63
2019-03-20T16:04:44.870Z,9.37
2019-03-20T16:09:46.459Z,9.18
2019-03-20T16:14:48.128Z,8.86
2019-03-20T16:19:49.687Z,8.59
2019-03-20T16:24:51.241Z,8.39
2019-03-20T16:29:52.801Z,8.28
2019-03-20T16:34:54.353Z,8.00
2019-03-20T16:39:55.933Z,7.74
2019-03-20T16:44:57.496Z,7.56
2019-03-20T16:49:59.094Z,7.36
2019-03-20T16:55:00.653Z,7.26
2019-03-20T17:00:19.100Z,7.06
2019-03-20T17:05:22.306Z,6.93
2019-03-20T17:10:33.552Z,6.85
2019-03-20T17:15:41.172Z,6.75
2019-03-20T17:20:42.741Z,6.62
2019-03-20T17:25:44.293Z,6.42
2019-03-20T17:30:51.085Z,6.37
2019-03-20T17:35:52.751Z,6.23
2019-03-20T17:40:54.330Z,6.11
2019-03-20T17:45:56.259Z,6.00
2019-03-20T17:50:57.830Z,5.90
2019-03-20T17:55:59.371Z,5.83
2019-03-20T18:01:00.941Z,5.78
2019-03-20T18:06:03.172Z,5.75
2019-03-20T18:11:04.778Z,5.72
2019-03-20T18:16:06.472Z,5.66
2019-03-20T18:21:08.043Z,5.61
2019-03-20T18:26:10.905Z,5.55
2019-03-20T18:31:12.609Z,5.48
2019-03-20T18:36:14.232Z,5.44
2019-03-20T18:41:16.110Z,5.36
2019-03-20T18:46:17.899Z,5.29
2019-03-20T18:51:19.480Z,5.22
2019-03-20T18:56:21.055Z,5.07
2019-03-20T19:01:22.642Z,4.98
2019-03-20T19:06:28.732Z,4.88
2019-03-20T19:11:30.385Z,4.74
2019-03-20T19:16:31.954Z,4.79
2019-03-20T19:21:33.600Z,4.66
2019-03-20T19:26:35.178Z,4.54
2019-03-20T19:31:36.720Z,4.49
2019-03-20T19:36:38.334Z,4.37
2019-03-20T19:41:39.996Z,4.36
2019-03-20T19:46:41.656Z,4.36
2019-03-20T19:51:43.244Z,4.34
2019-03-20T19:56:44.835Z,4.32
2019-03-20T20:01:46.738Z,4.35
2019-03-20T20:06:48.411Z,4.30
2019-03-20T20:11:49.962Z,4.29
2019-03-20T20:16:52.704Z,4.29
2019-03-20T20:21:54.299Z,4.27
2019-03-20T20:26:55.856Z,4.29
2019-03-20T20:31:57.514Z,4.27
2019-03-20T20:36:59.300Z,4.24
2019-03-20T20:42:02.109Z,4.19
2019-03-20T20:47:03.726Z,4.18
2019-03-20T20:52:05.283Z,4.13
2019-03-20T20:57:06.831Z,4.09
2019-03-20T21:02:08.403Z,4.08
2019-03-20T21:07:10.037Z,3.98
2019-03-20T21:12:11.604Z,3.96
2019-03-20T21:17:19.221Z,3.90
2019-03-20T21:22:35.557Z,3.76
2019-03-20T21:28:16.514Z,3.69
2019-03-20T21:34:04.618Z,3.64
2019-03-20T21:39:08.237Z,3.54
2019-03-20T21:44:46.313Z,3.48
2019-03-20T21:49:47.958Z,3.49
2019-03-20T21:55:27.112Z,3.43
2019-03-20T22:00:46.726Z,3.52
2019-03-20T22:06:25.054Z,3.53
2019-03-20T22:11:32.474Z,3.52
2019-03-20T22:17:31.610Z,3.49
2019-03-20T22:22:56.404Z,3.42
2019-03-20T22:28:50.484Z,3.41
2019-03-20T22:34:39.039Z,3.34
2019-03-20T22:40:09.235Z,3.26
2019-03-20T22:45:42.491Z,3.17
2019-03-20T22:51:07.145Z,3.18
2019-03-20T22:56:30.310Z,3.09
2019-03-20T23:02:08.037Z,3.12
2019-03-20T23:07:10.735Z,3.09
2019-03-20T23:12:13.491Z,3.07
2019-03-20T23:17:15.288Z,3.07
2019-03-20T23:22:16.836Z,2.99
2019-03-20T23:27:23.317Z,2.99
2019-03-20T23:32:24.970Z,3.02
2019-03-20T23:37:26.641Z,3.01
2019-03-20T23:42:28.470Z,3.00
2019-03-20T23:47:35.673Z,3.07
2019-03-20T23:52:37.338Z,3.06
2019-03-20T23:57:39.056Z,3.09
